Time;durP1;ratioP1;P1;durP2;ratioP2;P2;SDS_P1;SDS_P2;PMS_P1;PMS_P2;Temp;Humidity;BMP_temperature;BMP_pressure;BME280_temperature;BME280_humidity;BME280_pressure;Samples;Min_cycle;Max_cycle;Signal;HPM_P1;HPM_P2
2023/05/09 00:02:00;;;;;;;3.08;2.47;;;;;;;;;;10390584;28;20029;-62
2023/05/09 00:07:01;;;;;;;2.33;2.10;;;;;;;;;;10395710;28;20543;-63
2023/05/09 00:12:02;;;;;;;2.53;2.13;;;;;;;;;;10395754;28;20169;-62
2023/05/09 00:17:03;;;;;;;2.55;2.35;;;;;;;;;;10395164;28;20108;-61
2023/05/09 00:22:04;;;;;;;2.28;2.08;;;;;;;;;;10395676;28;20030;-61
2023/05/09 00:27:04;;;;;;;2.35;2.15;;;;;;;;;;10393127;28;20033;-62
2023/05/09 00:32:05;;;;;;;2.42;2.17;;;;;;;;;;10403689;28;20029;-62
2023/05/09 00:37:05;;;;;;;2.40;2.20;;;;;;;;;;10402324;28;20036;-61
2023/05/09 00:42:06;;;;;;;3.75;2.30;;;;;;;;;;10382968;28;20029;-61
2023/05/09 00:47:07;;;;;;;2.45;2.20;;;;;;;;;;10406450;28;20053;-61
2023/05/09 00:52:08;;;;;;;2.20;2.00;;;;;;;;;;10377843;28;20026;-61
2023/05/09 00:57:08;;;;;;;2.22;1.98;;;;;;;;;;10390635;28;20033;-61
2023/05/09 01:02:09;;;;;;;2.20;2.00;;;;;;;;;;10379155;28;20029;-61
2023/05/09 01:07:33;;;;;;;2.28;2.08;;;;;;;;;;10406752;28;20036;-61
2023/05/09 01:12:51;;;;;;;2.25;2.03;;;;;;;;;;10382671;28;20033;-61
2023/05/09 01:18:02;;;;;;;2.35;2.15;;;;;;;;;;10404930;28;20565;-61
2023/05/09 01:23:43;;;;;;;2.45;2.00;;;;;;;;;;10388616;28;20285;-62
2023/05/09 01:29:40;;;;;;;2.42;2.22;;;;;;;;;;10405262;28;20516;-62
2023/05/09 01:34:43;;;;;;;3.80;2.30;;;;;;;;;;10359248;28;20025;-61
2023/05/09 01:39:48;;;;;;;2.88;2.17;;;;;;;;;;10371296;28;20225;-62
2023/05/09 01:44:50;;;;;;;2.28;1.83;;;;;;;;;;10393413;28;20055;-62
2023/05/09 01:49:51;;;;;;;2.03;1.92;;;;;;;;;;10386924;28;20468;-62
2023/05/09 01:54:53;;;;;;;2.15;1.95;;;;;;;;;;10392300;28;20066;-62
2023/05/09 01:59:54;;;;;;;2.53;2.33;;;;;;;;;;10403784;28;20500;-62
2023/05/09 02:04:56;;;;;;;5.30;2.10;;;;;;;;;;10386274;28;20025;-61
2023/05/09 02:09:59;;;;;;;3.80;1.80;;;;;;;;;;10373472;28;20053;-61
2023/05/09 02:14:59;;;;;;;2.30;2.05;;;;;;;;;;10373299;28;20474;-61
2023/05/09 02:20:00;;;;;;;2.88;2.25;;;;;;;;;;10384848;28;20065;-61
2023/05/09 02:25:06;;;;;;;2.05;1.92;;;;;;;;;;10364940;28;20030;-62
2023/05/09 02:30:11;;;;;;;2.10;1.95;;;;;;;;;;10348544;28;20091;-62
2023/05/09 02:35:15;;;;;;;2.10;1.90;;;;;;;;;;10356435;28;20037;-62
2023/05/09 02:40:16;;;;;;;2.25;2.00;;;;;;;;;;10367317;28;20026;-61
2023/05/09 02:45:17;;;;;;;2.00;1.90;;;;;;;;;;10359777;28;20052;-61
2023/05/09 02:50:18;;;;;;;2.15;2.05;;;;;;;;;;10403004;28;20377;-62
2023/05/09 02:55:18;;;;;;;3.63;1.95;;;;;;;;;;10389017;28;20443;-62
2023/05/09 03:00:20;;;;;;;1.90;1.80;;;;;;;;;;10395064;28;20032;-62
2023/05/09 03:05:21;;;;;;;1.92;1.83;;;;;;;;;;10402000;28;20040;-61
2023/05/09 03:10:21;;;;;;;1.92;1.83;;;;;;;;;;10401721;28;20056;-61
2023/05/09 03:15:22;;;;;;;2.03;1.85;;;;;;;;;;10402916;28;20362;-61
2023/05/09 03:20:25;;;;;;;2.30;2.10;;;;;;;;;;10382073;28;20110;-61
2023/05/09 03:25:25;;;;;;;2.25;2.05;;;;;;;;;;10397977;28;20481;-61
2023/05/09 03:30:26;;;;;;;1.90;1.80;;;;;;;;;;10395692;28;20030;-61
2023/05/09 03:35:47;;;;;;;2.55;2.10;;;;;;;;;;10385113;28;20021;-61
2023/05/09 03:40:47;;;;;;;1.90;1.77;;;;;;;;;;10231059;29;20541;-61
2023/05/09 03:45:48;;;;;;;1.92;1.73;;;;;;;;;;10217168;29;20042;-61
2023/05/09 03:50:49;;;;;;;2.20;2.00;;;;;;;;;;10241914;29;20039;-61
2023/05/09 03:55:49;;;;;;;1.92;1.80;;;;;;;;;;10228967;29;20040;-61
2023/05/09 04:00:50;;;;;;;1.92;1.83;;;;;;;;;;10241485;29;20062;-61
2023/05/09 04:05:50;;;;;;;1.80;1.70;;;;;;;;;;10225331;29;20043;-61
2023/05/09 04:10:52;;;;;;;1.92;1.80;;;;;;;;;;10219204;29;20415;-62
2023/05/09 04:15:52;;;;;;;3.55;1.80;;;;;;;;;;10300019;28;20484;-61
2023/05/09 04:20:53;;;;;;;2.13;2.03;;;;;;;;;;10408573;28;20058;-61
2023/05/09 04:25:55;;;;;;;2.03;1.88;;;;;;;;;;10407773;28;20048;-61
2023/05/09 04:30:56;;;;;;;2.08;1.80;;;;;;;;;;10409276;28;20488;-61
2023/05/09 04:35:56;;;;;;;2.20;2.00;;;;;;;;;;10395800;28;20029;-61
2023/05/09 04:40:57;;;;;;;3.83;1.83;;;;;;;;;;10376392;28;20029;-62
2023/05/09 04:45:58;;;;;;;2.00;1.90;;;;;;;;;;10390688;28;20056;-61
2023/05/09 04:50:59;;;;;;;4.78;2.03;;;;;;;;;;10391223;28;20412;-61
2023/05/09 04:56:00;;;;;;;2.03;1.83;;;;;;;;;;10397119;28;20037;-65
2023/05/09 05:01:00;;;;;;;1.88;1.77;;;;;;;;;;10366694;28;20125;-63
2023/05/09 05:06:01;;;;;;;4.05;2.25;;;;;;;;;;10371718;28;20060;-62
2023/05/09 05:11:01;;;;;;;5.72;2.05;;;;;;;;;;10350905;28;20026;-63
2023/05/09 05:16:02;;;;;;;3.58;1.90;;;;;;;;;;10379006;28;20030;-62
2023/05/09 05:21:03;;;;;;;2.75;2.17;;;;;;;;;;10384980;28;20030;-62
2023/05/09 05:26:04;;;;;;;5.70;2.28;;;;;;;;;;10373512;28;20509;-63
2023/05/09 05:31:04;;;;;;;4.30;2.55;;;;;;;;;;10361252;28;20045;-63
2023/05/09 05:36:05;;;;;;;11.20;2.42;;;;;;;;;;10365422;28;20198;-63
2023/05/09 05:41:10;;;;;;;5.90;2.47;;;;;;;;;;10368433;28;20049;-63
2023/05/09 05:46:10;;;;;;;5.75;2.47;;;;;;;;;;10373734;28;20104;-63
2023/05/09 05:51:11;;;;;;;4.28;2.55;;;;;;;;;;10368267;28;20092;-61
2023/05/09 05:56:11;;;;;;;2.47;2.28;;;;;;;;;;10369139;28;20590;-61
2023/05/09 06:01:12;;;;;;;6.75;2.90;;;;;;;;;;10364211;28;20029;-61
2023/05/09 06:06:13;;;;;;;12.57;2.35;;;;;;;;;;10365620;28;20057;-61
2023/05/09 06:11:14;;;;;;;9.82;2.80;;;;;;;;;;10370867;28;20033;-61
2023/05/09 06:16:14;;;;;;;5.20;2.60;;;;;;;;;;10363223;28;20026;-61
2023/05/09 06:21:15;;;;;;;7.88;3.35;;;;;;;;;;10348267;28;20397;-61
2023/05/09 06:26:15;;;;;;;9.63;3.30;;;;;;;;;;10366944;28;20068;-61
2023/05/09 06:31:16;;;;;;;7.60;2.85;;;;;;;;;;10368543;28;20026;-61
2023/05/09 06:36:17;;;;;;;5.68;3.28;;;;;;;;;;10368937;28;20113;-61
2023/05/09 06:41:17;;;;;;;4.72;3.15;;;;;;;;;;10367558;28;20029;-61
2023/05/09 06:46:18;;;;;;;10.55;2.92;;;;;;;;;;10385368;28;20049;-61
2023/05/09 06:51:18;;;;;;;5.13;2.70;;;;;;;;;;10392115;28;20021;-61
2023/05/09 06:56:21;;;;;;;4.57;2.80;;;;;;;;;;10403322;28;20021;-61
2023/05/09 07:01:22;;;;;;;5.18;2.75;;;;;;;;;;10402199;28;20053;-61
2023/05/09 07:06:23;;;;;;;5.05;2.63;;;;;;;;;;10402571;28;20025;-61
2023/05/09 07:11:23;;;;;;;6.90;2.58;;;;;;;;;;10403043;28;20018;-61
2023/05/09 07:16:24;;;;;;;8.38;3.13;;;;;;;;;;10410251;28;20025;-61
2023/05/09 07:21:24;;;;;;;7.97;3.05;;;;;;;;;;10410991;28;20658;-61
2023/05/09 07:26:25;;;;;;;3.95;2.67;;;;;;;;;;10410508;28;20049;-61
2023/05/09 07:31:25;;;;;;;6.72;2.70;;;;;;;;;;10397266;28;20040;-61
2023/05/09 07:36:26;;;;;;;3.63;2.80;;;;;;;;;;10398251;28;20033;-61
2023/05/09 07:41:26;;;;;;;5.80;2.97;;;;;;;;;;10409896;28;20025;-61
2023/05/09 07:46:27;;;;;;;5.65;3.03;;;;;;;;;;10376918;28;20080;-61
2023/05/09 07:51:28;;;;;;;7.05;3.45;;;;;;;;;;10405660;28;20424;-61
2023/05/09 07:56:28;;;;;;;5.32;3.10;;;;;;;;;;10411002;28;20108;-61
2023/05/09 08:01:29;;;;;;;3.75;2.90;;;;;;;;;;10403446;28;20022;-61
2023/05/09 08:06:30;;;;;;;7.32;3.45;;;;;;;;;;10402457;28;20036;-61
2023/05/09 08:11:34;;;;;;;3.38;3.08;;;;;;;;;;10408140;28;20083;-62
2023/05/09 08:16:35;;;;;;;4.40;3.13;;;;;;;;;;10407897;28;20034;-61
2023/05/09 08:21:36;;;;;;;4.45;3.38;;;;;;;;;;10395143;28;20033;-61
2023/05/09 08:26:36;;;;;;;5.63;3.20;;;;;;;;;;10408750;28;20033;-61
2023/05/09 08:31:37;;;;;;;7.78;3.10;;;;;;;;;;10406354;28;20034;-61
2023/05/09 08:36:39;;;;;;;6.30;3.80;;;;;;;;;;10396743;28;20034;-61
2023/05/09 08:41:41;;;;;;;4.97;3.25;;;;;;;;;;10406626;28;20116;-61
2023/05/09 08:46:44;;;;;;;6.97;3.15;;;;;;;;;;10396205;28;20080;-62
2023/05/09 08:51:47;;;;;;;6.40;3.67;;;;;;;;;;10406109;28;20034;-61
2023/05/09 08:56:48;;;;;;;4.28;2.85;;;;;;;;;;10406715;28;20017;-61
2023/05/09 09:01:49;;;;;;;6.97;3.92;;;;;;;;;;10406855;28;20017;-61
2023/05/09 09:06:52;;;;;;;9.93;3.45;;;;;;;;;;10405955;28;20040;-61
2023/05/09 09:11:54;;;;;;;5.53;4.03;;;;;;;;;;10404651;28;20026;-61
2023/05/09 09:16:57;;;;;;;4.85;3.63;;;;;;;;;;10405376;28;20281;-61
2023/05/09 09:22:01;;;;;;;4.38;3.72;;;;;;;;;;10398315;28;20030;-61
2023/05/09 09:27:05;;;;;;;6.78;3.88;;;;;;;;;;10382401;28;20029;-61
2023/05/09 09:32:06;;;;;;;7.13;3.80;;;;;;;;;;10400795;28;20109;-61
2023/05/09 09:37:07;;;;;;;6.07;4.00;;;;;;;;;;10392717;28;20025;-61
2023/05/09 09:42:12;;;;;;;5.25;3.85;;;;;;;;;;10384415;28;20022;-61
2023/05/09 09:47:12;;;;;;;15.13;4.07;;;;;;;;;;10392685;28;20060;-61
2023/05/09 09:52:23;;;;;;;7.40;3.55;;;;;;;;;;10392233;28;20036;-61
2023/05/09 09:57:36;;;;;;;9.75;3.67;;;;;;;;;;10370074;28;20064;-61
2023/05/09 10:02:49;;;;;;;8.38;3.92;;;;;;;;;;10403778;28;20022;-61
2023/05/09 10:08:03;;;;;;;7.32;3.92;;;;;;;;;;10404313;28;20053;-61
2023/05/09 10:13:10;;;;;;;6.93;4.25;;;;;;;;;;10390987;28;20497;-61
2023/05/09 10:18:13;;;;;;;6.15;3.97;;;;;;;;;;10403425;28;20029;-61
2023/05/09 10:23:15;;;;;;;7.32;3.88;;;;;;;;;;10401848;28;20071;-61
2023/05/09 10:28:20;;;;;;;4.32;3.67;;;;;;;;;;10385564;28;20056;-61
2023/05/09 10:33:29;;;;;;;4.95;4.03;;;;;;;;;;10391589;28;20075;-61
2023/05/09 10:38:30;;;;;;;7.60;4.00;;;;;;;;;;10387203;28;20022;-61
2023/05/09 10:43:32;;;;;;;4.00;3.63;;;;;;;;;;10366351;28;20049;-61
2023/05/09 10:48:33;;;;;;;6.35;3.85;;;;;;;;;;10385918;28;20052;-61
2023/05/09 10:53:48;;;;;;;6.57;4.75;;;;;;;;;;10364856;28;20030;-61
2023/05/09 10:58:49;;;;;;;5.03;4.22;;;;;;;;;;10366275;28;20022;-61
2023/05/09 11:03:55;;;;;;;4.63;3.78;;;;;;;;;;10364552;28;20048;-61
2023/05/09 11:08:55;;;;;;;6.40;3.75;;;;;;;;;;10364261;28;20041;-61
2023/05/09 11:13:57;;;;;;;4.50;3.88;;;;;;;;;;10364947;28;20041;-61
2023/05/09 11:18:57;;;;;;;4.93;4.22;;;;;;;;;;10364659;28;20044;-61
2023/05/09 11:23:58;;;;;;;4.32;3.70;;;;;;;;;;10350610;28;20057;-61
2023/05/09 11:28:59;;;;;;;4.70;3.97;;;;;;;;;;10346747;28;20366;-61
2023/05/09 11:34:03;;;;;;;9.32;4.32;;;;;;;;;;10365021;28;20037;-61
2023/05/09 11:39:09;;;;;;;4.97;3.85;;;;;;;;;;10364175;28;20036;-61
2023/05/09 11:44:20;;;;;;;6.78;4.18;;;;;;;;;;10367337;28;20057;-61
2023/05/09 11:49:21;;;;;;;4.95;4.38;;;;;;;;;;10400646;28;20060;-61
2023/05/09 11:54:23;;;;;;;5.38;3.90;;;;;;;;;;10401127;28;20489;-61
2023/05/09 11:59:24;;;;;;;5.55;4.05;;;;;;;;;;10387256;28;20025;-61
2023/05/09 12:04:27;;;;;;;7.18;4.70;;;;;;;;;;10395719;28;20065;-61
2023/05/09 12:09:32;;;;;;;7.07;4.30;;;;;;;;;;10394175;28;20041;-61
2023/05/09 12:14:33;;;;;;;5.25;4.38;;;;;;;;;;10395512;28;20028;-61
2023/05/09 12:19:35;;;;;;;4.60;4.20;;;;;;;;;;10383613;28;20366;-61
2023/05/09 12:24:36;;;;;;;9.25;4.45;;;;;;;;;;10390742;28;20069;-61
2023/05/09 12:29:39;;;;;;;8.00;4.70;;;;;;;;;;10409017;28;20084;-61
2023/05/09 12:34:40;;;;;;;5.80;4.65;;;;;;;;;;10386411;28;20025;-61
2023/05/09 12:39:41;;;;;;;5.13;4.63;;;;;;;;;;10408313;28;20477;-62
2023/05/09 12:44:48;;;;;;;7.50;5.05;;;;;;;;;;10388732;28;20046;-62
2023/05/09 12:49:49;;;;;;;7.72;4.90;;;;;;;;;;10381680;28;20033;-61
2023/05/09 12:54:52;;;;;;;4.90;4.40;;;;;;;;;;10384342;28;20108;-61
2023/05/09 12:59:58;;;;;;;7.55;4.22;;;;;;;;;;10370979;28;20018;-62
2023/05/09 13:05:14;;;;;;;9.75;4.60;;;;;;;;;;10370611;28;20036;-61
2023/05/09 13:10:24;;;;;;;7.05;4.05;;;;;;;;;;10371222;28;20670;-61
2023/05/09 13:15:25;;;;;;;4.57;4.03;;;;;;;;;;10373671;28;20046;-61
2023/05/09 13:20:26;;;;;;;7.70;4.70;;;;;;;;;;10372475;28;20025;-61
2023/05/09 13:25:26;;;;;;;7.75;4.90;;;;;;;;;;10371410;28;20037;-61
2023/05/09 13:30:27;;;;;;;7.53;4.57;;;;;;;;;;10371569;28;20017;-61
2023/05/09 13:35:28;;;;;;;4.78;3.67;;;;;;;;;;10369427;28;20061;-61
2023/05/09 13:40:29;;;;;;;8.48;3.92;;;;;;;;;;10370326;28;20018;-61
2023/05/09 13:45:29;;;;;;;5.20;3.88;;;;;;;;;;10382688;28;20049;-61
2023/05/09 13:50:30;;;;;;;4.85;4.40;;;;;;;;;;10393321;28;20037;-61
2023/05/09 13:55:31;;;;;;;6.35;3.90;;;;;;;;;;10405721;28;20017;-61
2023/05/09 14:00:32;;;;;;;4.95;4.22;;;;;;;;;;10404494;28;20083;-61
2023/05/09 14:05:33;;;;;;;4.40;4.00;;;;;;;;;;10393646;28;20030;-61
2023/05/09 14:10:33;;;;;;;4.10;3.80;;;;;;;;;;10392086;28;20029;-61
2023/05/09 14:15:34;;;;;;;4.65;4.00;;;;;;;;;;10403604;28;20056;-61
2023/05/09 14:20:36;;;;;;;3.63;3.33;;;;;;;;;;10403832;28;20026;-61
2023/05/09 14:25:36;;;;;;;4.68;4.25;;;;;;;;;;10404095;28;20025;-61
2023/05/09 14:30:37;;;;;;;4.82;3.95;;;;;;;;;;10391373;28;20029;-61
2023/05/09 14:35:38;;;;;;;5.32;4.05;;;;;;;;;;10391293;28;20021;-61
2023/05/09 14:40:38;;;;;;;4.38;3.97;;;;;;;;;;10403322;28;20071;-61
2023/05/09 14:45:39;;;;;;;4.45;3.97;;;;;;;;;;10393331;28;20197;-61
2023/05/09 14:50:39;;;;;;;4.43;4.00;;;;;;;;;;10403091;28;20036;-61
2023/05/09 14:55:40;;;;;;;7.88;4.40;;;;;;;;;;10389355;28;20469;-61
2023/05/09 15:00:41;;;;;;;3.75;3.38;;;;;;;;;;10382640;28;20034;-62
2023/05/09 15:05:41;;;;;;;10.73;4.05;;;;;;;;;;10367208;28;20105;-61
2023/05/09 15:10:42;;;;;;;4.25;3.83;;;;;;;;;;10373344;28;20401;-61
2023/05/09 15:15:42;;;;;;;4.05;3.63;;;;;;;;;;10365868;28;20030;-61
2023/05/09 15:20:43;;;;;;;3.70;3.40;;;;;;;;;;10366120;28;20030;-61
2023/05/09 15:25:43;;;;;;;5.15;3.80;;;;;;;;;;10365232;28;20113;-61
2023/05/09 15:30:44;;;;;;;4.70;4.00;;;;;;;;;;10365581;28;20037;-61
2023/05/09 15:35:45;;;;;;;6.55;3.88;;;;;;;;;;10371922;28;20029;-61
2023/05/09 15:40:46;;;;;;;5.28;3.78;;;;;;;;;;10372591;28;20102;-61
2023/05/09 15:45:47;;;;;;;4.45;4.05;;;;;;;;;;10389670;28;20049;-61
2023/05/09 15:50:48;;;;;;;4.30;3.80;;;;;;;;;;10397557;28;20034;-61
2023/05/09 15:55:49;;;;;;;4.65;4.00;;;;;;;;;;10409231;28;20025;-61
2023/05/09 16:00:49;;;;;;;4.85;4.35;;;;;;;;;;10408808;28;20021;-61
2023/05/09 16:05:51;;;;;;;3.72;3.40;;;;;;;;;;10409106;28;20030;-61
2023/05/09 16:10:51;;;;;;;5.30;3.72;;;;;;;;;;10355727;28;20022;-61
2023/05/09 16:15:52;;;;;;;6.32;3.97;;;;;;;;;;10395875;28;20030;-61
2023/05/09 16:20:53;;;;;;;6.03;3.90;;;;;;;;;;10385367;28;20030;-61
2023/05/09 16:25:54;;;;;;;3.40;3.20;;;;;;;;;;10393990;28;20104;-61
2023/05/09 16:30:54;;;;;;;5.55;3.97;;;;;;;;;;10408609;28;20024;-61
2023/05/09 16:35:55;;;;;;;5.15;3.83;;;;;;;;;;10381788;28;20060;-61
2023/05/09 16:40:56;;;;;;;4.38;3.97;;;;;;;;;;10396530;28;20029;-61
2023/05/09 16:45:56;;;;;;;4.18;3.83;;;;;;;;;;10378057;28;20497;-61
2023/05/09 16:50:57;;;;;;;5.07;4.15;;;;;;;;;;10382776;28;20453;-61
2023/05/09 16:55:57;;;;;;;5.55;4.15;;;;;;;;;;10371557;28;20133;-61
2023/05/09 17:01:00;;;;;;;5.25;3.70;;;;;;;;;;10370598;28;20026;-61
2023/05/09 17:06:01;;;;;;;5.63;4.15;;;;;;;;;;10371192;28;20054;-61
2023/05/09 17:11:02;;;;;;;6.07;4.47;;;;;;;;;;10365127;28;20034;-61
2023/05/09 17:16:03;;;;;;;5.75;3.90;;;;;;;;;;10369580;28;20368;-61
2023/05/09 17:21:04;;;;;;;6.18;3.47;;;;;;;;;;10363329;28;20051;-60
2023/05/09 17:26:04;;;;;;;7.35;3.92;;;;;;;;;;10368408;28;20029;-61
2023/05/09 17:31:05;;;;;;;9.85;3.97;;;;;;;;;;10383919;28;20033;-61
2023/05/09 17:36:06;;;;;;;8.25;3.63;;;;;;;;;;10370913;28;20026;-60
2023/05/09 17:41:06;;;;;;;9.43;3.72;;;;;;;;;;10370667;28;20384;-60
2023/05/09 17:46:07;;;;;;;4.65;3.70;;;;;;;;;;10383502;28;20056;-60
2023/05/09 17:51:09;;;;;;;6.75;3.83;;;;;;;;;;10382617;28;20042;-60
2023/05/09 17:56:09;;;;;;;6.28;3.58;;;;;;;;;;10386845;28;20461;-61
2023/05/09 18:01:10;;;;;;;5.03;3.47;;;;;;;;;;10373989;28;20033;-61
2023/05/09 18:06:11;;;;;;;5.05;3.67;;;;;;;;;;10365480;28;20073;-61
2023/05/09 18:11:12;;;;;;;4.03;3.20;;;;;;;;;;10364916;28;20040;-61
2023/05/09 18:16:13;;;;;;;4.47;3.28;;;;;;;;;;10368918;28;20026;-61
2023/05/09 18:21:13;;;;;;;8.98;3.80;;;;;;;;;;10369209;28;20026;-61
2023/05/09 18:26:14;;;;;;;4.78;3.70;;;;;;;;;;10364718;28;20041;-61
2023/05/09 18:31:15;;;;;;;6.35;4.18;;;;;;;;;;10367120;28;20030;-61
2023/05/09 18:36:16;;;;;;;6.35;3.95;;;;;;;;;;10358420;28;20033;-61
2023/05/09 18:41:16;;;;;;;5.05;3.60;;;;;;;;;;10365550;28;20026;-61
2023/05/09 18:46:19;;;;;;;9.35;3.50;;;;;;;;;;10363912;28;20052;-61
2023/05/09 18:51:20;;;;;;;6.53;4.15;;;;;;;;;;10380561;28;20029;-61
2023/05/09 18:56:21;;;;;;;11.52;3.30;;;;;;;;;;10359468;28;20033;-61
2023/05/09 19:01:23;;;;;;;7.47;3.40;;;;;;;;;;10356439;28;20025;-61
2023/05/09 19:06:25;;;;;;;5.47;3.15;;;;;;;;;;10356932;28;20112;-61
2023/05/09 19:11:26;;;;;;;7.38;3.28;;;;;;;;;;10365395;28;20045;-61
2023/05/09 19:16:26;;;;;;;11.02;4.03;;;;;;;;;;10349328;28;20026;-59
2023/05/09 19:21:27;;;;;;;8.27;3.85;;;;;;;;;;10361727;28;20390;-60
2023/05/09 19:26:28;;;;;;;12.05;6.20;;;;;;;;;;10368255;28;20028;-60
2023/05/09 19:31:30;;;;;;;13.43;6.32;;;;;;;;;;10343472;28;20042;-61
2023/05/09 19:36:30;;;;;;;20.63;7.10;;;;;;;;;;10347194;28;20120;-64
2023/05/09 19:41:31;;;;;;;19.65;7.88;;;;;;;;;;10370690;28;20049;-66
2023/05/09 19:46:32;;;;;;;19.00;7.38;;;;;;;;;;10347715;23;20056;-56
2023/05/09 19:51:32;;;;;;;17.40;7.57;;;;;;;;;;10331560;28;20042;-56
2023/05/09 19:56:33;;;;;;;17.15;8.30;;;;;;;;;;10331442;28;20034;-54
2023/05/09 20:01:34;;;;;;;19.45;8.05;;;;;;;;;;10325258;28;20026;-56
2023/05/09 20:06:35;;;;;;;16.85;8.43;;;;;;;;;;10330488;28;20482;-55
2023/05/09 20:11:35;;;;;;;16.00;7.40;;;;;;;;;;10332584;28;20029;-57
2023/05/09 20:16:36;;;;;;;14.60;6.90;;;;;;;;;;10330366;28;20030;-57
2023/05/09 20:21:36;;;;;;;15.48;6.50;;;;;;;;;;10330579;28;20529;-57
2023/05/09 20:26:38;;;;;;;13.38;6.47;;;;;;;;;;10330897;28;20030;-56
2023/05/09 20:31:38;;;;;;;14.02;7.20;;;;;;;;;;10330120;28;20041;-56
2023/05/09 20:36:39;;;;;;;13.02;6.60;;;;;;;;;;10319990;28;20026;-58
2023/05/09 20:41:40;;;;;;;12.07;6.05;;;;;;;;;;10328819;28;20470;-59
2023/05/09 20:46:42;;;;;;;18.38;6.10;;;;;;;;;;10321793;28;20053;-58
2023/05/09 20:51:42;;;;;;;13.48;6.00;;;;;;;;;;10330444;28;20026;-59
2023/05/09 20:56:43;;;;;;;12.45;6.53;;;;;;;;;;10330686;28;20038;-60
2023/05/09 21:01:44;;;;;;;18.65;6.75;;;;;;;;;;10330193;28;20034;-60
2023/05/09 21:06:45;;;;;;;12.50;6.15;;;;;;;;;;10327812;28;20422;-59
2023/05/09 21:11:46;;;;;;;10.57;6.55;;;;;;;;;;10311726;28;20030;-59
2023/05/09 21:16:46;;;;;;;13.02;6.10;;;;;;;;;;10327162;28;20481;-58
2023/05/09 21:21:47;;;;;;;16.63;6.47;;;;;;;;;;10329493;28;20027;-58
2023/05/09 21:26:47;;;;;;;15.93;6.20;;;;;;;;;;10329747;28;20033;-59
2023/05/09 21:31:48;;;;;;;13.32;6.50;;;;;;;;;;10326074;28;20042;-58
2023/05/09 21:36:49;;;;;;;9.73;5.68;;;;;;;;;;10324938;28;20045;-56
2023/05/09 21:41:49;;;;;;;11.38;6.07;;;;;;;;;;10326029;28;20030;-56
2023/05/09 21:46:50;;;;;;;10.18;5.95;;;;;;;;;;10327094;28;20064;-55
2023/05/09 21:51:50;;;;;;;9.00;5.72;;;;;;;;;;10323981;28;20034;-55
2023/05/09 21:56:51;;;;;;;13.68;5.22;;;;;;;;;;10323694;28;20240;-55
2023/05/09 22:01:51;;;;;;;12.30;5.22;;;;;;;;;;10324218;28;20014;-55
2023/05/09 22:06:52;;;;;;;10.32;5.60;;;;;;;;;;10324832;28;20027;-53
2023/05/09 22:11:53;;;;;;;7.90;5.18;;;;;;;;;;10326548;28;20022;-54
2023/05/09 22:16:53;;;;;;;8.57;5.05;;;;;;;;;;10326372;28;20038;-56
2023/05/09 22:21:54;;;;;;;9.90;4.97;;;;;;;;;;10326297;28;20022;-54
2023/05/09 22:26:54;;;;;;;7.57;4.55;;;;;;;;;;10326008;28;20030;-55
2023/05/09 22:31:55;;;;;;;8.07;4.60;;;;;;;;;;10326409;28;20025;-55
2023/05/09 22:36:55;;;;;;;11.38;4.45;;;;;;;;;;10326274;28;20030;-58
2023/05/09 22:41:56;;;;;;;5.55;4.28;;;;;;;;;;10326244;28;20042;-53
2023/05/09 22:46:57;;;;;;;5.20;3.72;;;;;;;;;;10326076;28;20053;-55
2023/05/09 22:51:58;;;;;;;7.43;4.25;;;;;;;;;;10325488;28;20034;-53
2023/05/09 22:56:59;;;;;;;5.78;4.10;;;;;;;;;;10325524;28;20030;-57
2023/05/09 23:01:59;;;;;;;4.78;3.60;;;;;;;;;;10325970;28;20026;-57
2023/05/09 23:07:00;;;;;;;6.75;3.15;;;;;;;;;;10325963;28;20494;-54
2023/05/09 23:12:01;;;;;;;5.82;3.28;;;;;;;;;;10325434;28;20470;-55
2023/05/09 23:17:02;;;;;;;6.03;3.22;;;;;;;;;;10325481;28;20112;-52
2023/05/09 23:22:03;;;;;;;8.52;3.08;;;;;;;;;;10325725;28;20026;-53
2023/05/09 23:27:03;;;;;;;7.28;3.28;;;;;;;;;;10325376;28;20049;-54
2023/05/09 23:32:04;;;;;;;7.13;3.17;;;;;;;;;;10324339;28;20038;-54
2023/05/09 23:37:06;;;;;;;6.13;3.10;;;;;;;;;;10324556;28;20233;-55
2023/05/09 23:42:07;;;;;;;4.53;3.22;;;;;;;;;;10324381;28;20049;-52
2023/05/09 23:47:07;;;;;;;5.95;3.42;;;;;;;;;;10324626;28;20026;-54
2023/05/09 23:52:08;;;;;;;4.53;2.42;;;;;;;;;;10324659;28;20054;-51
2023/05/09 23:57:09;;;;;;;2.58;2.30;;;;;;;;;;10332077;28;20458;-53
